Time;durP1;ratioP1;P1;durP2;ratioP2;P2;SDS_P1;SDS_P2;PMS_P1;PMS_P2;Temp;Humidity;BMP_temperature;BMP_pressure;BME280_temperature;BME280_humidity;BME280_pressure;Samples;Min_cycle;Max_cycle;Signal;HPM_P1;HPM_P2
2022/08/05 00:01:57;;;;;;;6.63;6.13;;;;;;;27.63;51.52;158484.63;5013833;28;21000;-85
2022/08/05 00:04:26;;;;;;;6.60;6.10;;;;;;;27.61;51.30;158478.09;5015556;28;20465;-85
2022/08/05 00:06:52;;;;;;;6.77;6.27;;;;;;;27.59;51.48;158474.13;5023295;28;20767;-85
2022/08/05 00:09:19;;;;;;;6.37;5.87;;;;;;;27.58;50.85;158471.53;5014412;28;20448;-85
2022/08/05 00:11:46;;;;;;;6.47;5.97;;;;;;;27.53;51.27;158457.13;5024406;28;20470;-85
2022/08/05 00:14:13;;;;;;;6.50;6.00;;;;;;;27.50;51.63;158449.25;4990856;28;20464;-85
2022/08/05 00:16:40;;;;;;;7.27;6.57;;;;;;;27.49;51.01;158446.59;4995475;28;20784;-85
2022/08/05 00:19:06;;;;;;;6.23;5.77;;;;;;;27.47;51.02;158441.38;4995491;28;20487;-85
2022/08/05 00:21:35;;;;;;;7.17;6.57;;;;;;;27.45;51.18;158437.47;4999218;28;20479;-85
2022/08/05 00:24:01;;;;;;;7.10;6.50;;;;;;;27.44;51.52;158434.81;5002731;28;20491;-85
2022/08/05 00:26:28;;;;;;;6.23;5.73;;;;;;;27.43;50.68;158430.91;4997231;28;20519;-85
2022/08/05 00:28:55;;;;;;;6.60;6.10;;;;;;;27.40;50.70;158424.38;5014194;28;20621;-85
2022/08/05 00:31:22;;;;;;;6.90;6.30;;;;;;;27.37;51.28;158416.44;5000768;28;20495;-85
2022/08/05 00:33:48;;;;;;;6.50;5.90;;;;;;;27.32;51.51;158403.34;5021051;28;20532;-85
2022/08/05 00:36:15;;;;;;;6.10;5.70;;;;;;;27.32;51.53;158403.34;5034526;28;20478;-85
2022/08/05 00:38:43;;;;;;;7.50;6.80;;;;;;;27.29;51.26;158395.47;5052198;28;20482;-85
2022/08/05 00:41:10;;;;;;;7.67;6.90;;;;;;;27.27;51.05;158390.19;5018596;28;20448;-85
2022/08/05 00:43:37;;;;;;;6.50;6.00;;;;;;;27.26;51.54;158386.28;5032737;28;20543;-85
2022/08/05 00:46:03;;;;;;;6.70;6.10;;;;;;;27.23;51.39;158379.75;5033043;28;20443;-85
2022/08/05 00:48:30;;;;;;;6.83;6.30;;;;;;;27.21;51.77;158374.50;4988585;28;20441;-85
2022/08/05 00:50:57;;;;;;;6.57;5.97;;;;;;;27.16;51.31;158361.41;5031005;28;20451;-85
2022/08/05 00:53:23;;;;;;;6.30;5.90;;;;;;;27.09;51.56;158344.34;5015253;28;20480;-85
2022/08/05 00:55:52;;;;;;;6.07;5.57;;;;;;;27.07;51.68;158339.13;5015421;28;20837;-85
2022/08/05 00:58:18;;;;;;;5.57;5.17;;;;;;;27.06;50.19;158336.50;5014293;28;20483;-85
2022/08/05 01:00:46;;;;;;;5.87;5.37;;;;;;;27.08;50.25;158341.75;5013941;28;20513;-85
2022/08/05 01:03:13;;;;;;;5.30;4.90;;;;;;;27.28;45.71;158392.84;5030228;28;20543;-84
2022/08/05 01:05:40;;;;;;;4.77;4.47;;;;;;;27.43;42.70;158432.19;5019459;28;20555;-84
2022/08/05 01:08:07;;;;;;;4.37;3.97;;;;;;;27.54;42.60;158461.03;5028651;28;20487;-85
2022/08/05 01:10:41;;;;;;;6.23;4.80;;;;;;;27.44;44.43;158434.81;5015041;28;20534;-84
2022/08/05 01:13:23;;;;;;;8.30;4.73;;;;;;;27.29;45.43;158394.16;5032312;28;20424;-84
2022/08/05 01:16:02;;;;;;;6.63;4.83;;;;;;;27.09;45.74;158343.03;5023021;28;20587;-84
2022/08/05 01:18:33;;;;;;;6.30;4.87;;;;;;;27.01;46.84;158322.06;5014093;28;20474;-84
2022/08/05 01:21:08;;;;;;;4.90;4.40;;;;;;;26.83;47.70;158274.91;5013565;28;20451;-84
2022/08/05 01:23:48;;;;;;;7.10;4.33;;;;;;;26.66;48.47;158231.69;5012676;28;20478;-84
2022/08/05 01:26:25;;;;;;;6.83;4.80;;;;;;;26.57;48.87;158209.41;5028748;28;20444;-85
2022/08/05 01:28:57;;;;;;;6.20;4.53;;;;;;;26.39;50.00;158162.25;5015818;28;20452;-84
2022/08/05 01:31:28;;;;;;;5.40;4.60;;;;;;;26.29;50.23;158136.03;5007567;28;20468;-84
2022/08/05 01:34:09;;;;;;;6.13;4.40;;;;;;;26.28;50.47;158132.13;4998935;28;20448;-84
2022/08/05 01:36:40;;;;;;;7.07;4.33;;;;;;;26.26;51.09;158126.88;5031938;28;20428;-84
2022/08/05 01:39:07;;;;;;;5.90;5.10;;;;;;;26.11;51.72;158088.84;5006606;28;20463;-84
2022/08/05 01:41:35;;;;;;;4.40;4.00;;;;;;;26.04;52.12;158070.53;4994236;28;20447;-83
2022/08/05 01:44:06;;;;;;;4.50;4.10;;;;;;;25.96;52.72;158049.59;5014214;28;20444;-83
2022/08/05 01:46:35;;;;;;;6.67;4.40;;;;;;;25.94;53.15;158044.34;5012246;28;20946;-84
2022/08/05 01:49:03;;;;;;;6.00;4.43;;;;;;;25.89;52.87;158031.25;5019954;28;20543;-84
2022/08/05 01:51:31;;;;;;;4.53;4.13;;;;;;;25.85;53.69;158020.78;5015551;28;20534;-84
2022/08/05 01:53:59;;;;;;;5.77;4.47;;;;;;;25.76;54.31;157998.50;5013182;28;20502;-85
2022/08/05 01:56:29;;;;;;;7.37;4.50;;;;;;;25.66;54.70;157971.00;5003954;28;20449;-84
2022/08/05 01:58:57;;;;;;;6.57;4.50;;;;;;;25.64;55.07;157967.09;4994175;28;20481;-84
2022/08/05 02:01:26;;;;;;;4.97;4.47;;;;;;;25.63;55.23;157963.19;5012508;28;20970;-84
2022/08/05 02:03:53;;;;;;;9.30;4.63;;;;;;;25.57;55.62;157948.78;5013723;28;20506;-84
2022/08/05 02:06:20;;;;;;;8.60;4.17;;;;;;;25.49;56.14;157926.53;5017298;28;20540;-84
2022/08/05 02:08:47;;;;;;;4.10;3.80;;;;;;;25.50;56.38;157929.13;4994520;28;20849;-84
2022/08/05 02:11:16;;;;;;;5.43;4.20;;;;;;;25.42;56.68;157910.75;4994279;28;20510;-84
2022/08/05 02:13:47;;;;;;;5.40;4.90;;;;;;;25.39;56.65;157902.91;5005777;28;20467;-83
2022/08/05 02:16:16;;;;;;;6.10;4.37;;;;;;;25.37;56.94;157897.69;5013649;28;20828;-83
2022/08/05 02:18:49;;;;;;;5.30;4.80;;;;;;;25.30;56.81;157878.06;5026050;28;20504;-83
2022/08/05 02:21:18;;;;;;;5.60;4.80;;;;;;;25.29;57.39;157875.44;5010144;28;20479;-84
2022/08/05 02:23:48;;;;;;;10.53;4.80;;;;;;;25.28;57.32;157872.84;5003814;28;20582;-85
2022/08/05 02:26:20;;;;;;;14.40;4.83;;;;;;;25.31;57.25;157880.69;5031175;28;20440;-85
2022/08/05 02:28:48;;;;;;;6.10;4.57;;;;;;;25.22;57.76;157858.44;5013799;28;20443;-85
2022/08/05 02:31:17;;;;;;;6.93;4.97;;;;;;;25.22;57.98;157858.44;4997366;28;20448;-85
2022/08/05 02:33:50;;;;;;;7.67;4.23;;;;;;;25.20;57.95;157853.22;5013199;28;20436;-85
2022/08/05 02:36:19;;;;;;;4.97;4.07;;;;;;;25.21;58.06;157855.81;5030774;28;20479;-84
2022/08/05 02:38:47;;;;;;;6.83;4.73;;;;;;;25.23;58.00;157859.75;5011261;28;20511;-84
2022/08/05 02:41:15;;;;;;;5.73;4.10;;;;;;;25.18;58.33;157846.63;4993493;28;20472;-84
2022/08/05 02:43:42;;;;;;;8.17;4.67;;;;;;;25.22;58.55;157857.13;5025274;28;20849;-85
2022/08/05 02:46:09;;;;;;;10.00;4.27;;;;;;;25.21;58.21;157854.47;5030922;28;20440;-85
2022/08/05 02:48:37;;;;;;;5.20;4.63;;;;;;;25.20;58.28;157853.22;4994464;28;20487;-84
2022/08/05 02:51:05;;;;;;;6.07;4.63;;;;;;;25.12;58.55;157832.28;5015107;28;20447;-84
2022/08/05 02:53:33;;;;;;;10.00;4.80;;;;;;;25.11;58.48;157828.31;5012744;28;20487;-84
2022/08/05 02:56:00;;;;;;;7.03;4.60;;;;;;;25.11;58.64;157828.31;5009047;28;20555;-85
2022/08/05 02:58:27;;;;;;;6.87;4.97;;;;;;;25.08;58.95;157821.78;4993182;28;20476;-85
2022/08/05 03:00:55;;;;;;;4.90;4.50;;;;;;;25.07;58.87;157817.88;5010628;28;20432;-84
2022/08/05 03:03:23;;;;;;;6.03;4.70;;;;;;;25.06;58.58;157815.25;5009174;28;20554;-84
2022/08/05 03:05:50;;;;;;;5.70;4.20;;;;;;;25.04;59.41;157810.00;4993705;28;20948;-85
2022/08/05 03:08:18;;;;;;;8.07;4.40;;;;;;;25.03;59.27;157808.69;5010503;28;20452;-82
2022/08/05 03:10:45;;;;;;;8.10;4.80;;;;;;;25.01;59.14;157803.47;4997530;28;20455;-84
2022/08/05 03:13:14;;;;;;;5.20;4.30;;;;;;;25.03;59.53;157808.69;4997819;28;20791;-82
2022/08/05 03:15:44;;;;;;;5.50;4.60;;;;;;;25.04;59.59;157810.00;5028651;28;20947;-84
2022/08/05 03:18:11;;;;;;;5.80;5.20;;;;;;;25.05;59.63;157813.91;5022185;28;20829;-84
2022/08/05 03:20:38;;;;;;;5.53;4.47;;;;;;;25.00;59.62;157799.53;4991212;28;20460;-84
2022/08/05 03:23:06;;;;;;;9.53;4.70;;;;;;;25.00;59.77;157800.84;5007206;28;20535;-84
2022/08/05 03:25:34;;;;;;;6.07;5.47;;;;;;;25.00;59.59;157800.84;5012870;28;20484;-84
2022/08/05 03:28:02;;;;;;;5.57;4.57;;;;;;;24.96;59.84;157790.41;5013324;28;20935;-84
2022/08/05 03:30:31;;;;;;;5.60;4.43;;;;;;;24.96;59.89;157790.41;5026398;28;20452;-84
2022/08/05 03:32:58;;;;;;;5.63;4.70;;;;;;;24.90;59.88;157774.69;4996353;28;20920;-84
2022/08/05 03:35:25;;;;;;;6.27;4.77;;;;;;;24.89;60.25;157772.03;5012446;28;21742;-84
2022/08/05 03:37:52;;;;;;;7.60;4.50;;;;;;;24.88;60.58;157769.47;5010920;28;20476;-83
2022/08/05 03:40:18;;;;;;;5.33;4.53;;;;;;;24.85;60.43;157760.28;4997436;28;20437;-84
2022/08/05 03:42:46;;;;;;;6.73;4.83;;;;;;;24.81;60.28;157751.13;5017070;28;20611;-84
2022/08/05 03:45:13;;;;;;;6.00;5.00;;;;;;;24.79;60.76;157745.88;5022213;28;20846;-84
2022/08/05 03:47:40;;;;;;;4.80;4.40;;;;;;;24.75;60.74;157736.66;5015722;28;20483;-84
2022/08/05 03:50:07;;;;;;;5.23;4.73;;;;;;;24.71;60.77;157724.91;5016435;28;20440;-84
2022/08/05 03:52:46;;;;;;;8.10;4.93;;;;;;;24.67;60.88;157714.47;5034103;28;20435;-84
2022/08/05 03:55:18;;;;;;;6.43;5.03;;;;;;;24.70;61.17;157722.31;5015073;28;20459;-84
2022/08/05 03:57:48;;;;;;;7.00;4.77;;;;;;;24.68;61.31;157717.06;5016053;28;20595;-84
2022/08/05 04:00:17;;;;;;;7.30;5.00;;;;;;;24.62;61.49;157702.66;5034199;28;20428;-84
2022/08/05 04:02:45;;;;;;;5.17;4.67;;;;;;;24.58;61.87;157692.22;5015629;28;20476;-84
2022/08/05 04:05:12;;;;;;;5.40;4.90;;;;;;;24.54;61.91;157680.47;5014907;28;20478;-84
2022/08/05 04:07:39;;;;;;;5.73;5.23;;;;;;;24.52;61.59;157675.19;5033239;28;20424;-84
2022/08/05 04:10:06;;;;;;;5.73;4.90;;;;;;;24.52;62.13;157675.19;5015750;28;20451;-84
2022/08/05 04:12:33;;;;;;;5.50;5.00;;;;;;;24.53;62.24;157677.81;5032381;28;20428;-84
2022/08/05 04:15:01;;;;;;;6.90;4.90;;;;;;;24.50;62.55;157669.97;5028993;28;20912;-84
2022/08/05 04:17:28;;;;;;;6.50;5.73;;;;;;;24.48;62.70;157666.06;5033507;28;20811;-84
2022/08/05 04:19:55;;;;;;;5.17;4.67;;;;;;;24.45;62.42;157658.22;5015918;28;20467;-84
2022/08/05 04:22:22;;;;;;;6.10;4.80;;;;;;;24.42;62.62;157650.34;5007465;28;20459;-84
2022/08/05 04:24:48;;;;;;;7.87;5.20;;;;;;;24.36;62.65;157634.66;5032292;28;20482;-83
2022/08/05 04:27:15;;;;;;;5.97;5.37;;;;;;;24.28;63.72;157613.72;5015123;28;20468;-83
2022/08/05 04:29:42;;;;;;;7.47;4.70;;;;;;;24.25;63.76;157604.59;5003488;28;20492;-84
2022/08/05 04:32:10;;;;;;;5.70;4.80;;;;;;;24.21;63.65;157596.75;4996480;28;20975;-83
2022/08/05 04:34:37;;;;;;;8.77;5.03;;;;;;;24.20;63.91;157594.09;5032567;28;20554;-83
2022/08/05 04:37:04;;;;;;;6.97;5.17;;;;;;;24.22;63.64;157599.31;4999308;28;20501;-83
2022/08/05 04:39:32;;;;;;;5.93;4.63;;;;;;;24.26;63.70;157607.19;4999215;28;21033;-83
2022/08/05 04:41:59;;;;;;;7.70;5.30;;;;;;;24.25;63.91;157604.59;4998233;28;20965;-83
2022/08/05 04:44:26;;;;;;;6.63;4.97;;;;;;;24.27;63.73;157609.81;5014820;28;20448;-83
2022/08/05 04:46:53;;;;;;;6.00;5.30;;;;;;;24.27;63.76;157611.13;5004779;28;20471;-83
2022/08/05 04:49:21;;;;;;;6.03;5.40;;;;;;;24.27;63.87;157611.13;5013418;28;20433;-83
2022/08/05 04:51:47;;;;;;;6.80;6.10;;;;;;;24.26;63.67;157607.19;5015270;28;20440;-83
2022/08/05 04:54:14;;;;;;;8.30;5.70;;;;;;;24.23;63.99;157601.97;5014378;28;20447;-83
2022/08/05 04:56:41;;;;;;;6.03;5.43;;;;;;;24.21;63.78;157596.75;4997768;28;20467;-83
2022/08/05 04:59:08;;;;;;;5.47;4.80;;;;;;;24.15;64.41;157581.03;4995312;28;20747;-83
2022/08/05 05:01:34;;;;;;;9.40;4.67;;;;;;;24.19;64.60;157590.22;5006395;28;20506;-83
2022/08/05 05:04:01;;;;;;;5.47;4.97;;;;;;;24.23;64.10;157601.97;5013898;28;20513;-83
2022/08/05 05:06:29;;;;;;;6.30;5.67;;;;;;;24.27;64.19;157611.13;5032459;28;20520;-83
2022/08/05 05:08:56;;;;;;;8.17;5.10;;;;;;;24.29;63.77;157616.34;5032016;28;20534;-83
2022/08/05 05:11:22;;;;;;;6.90;4.90;;;;;;;24.34;63.96;157629.44;5029177;28;20480;-83
2022/08/05 05:13:49;;;;;;;5.90;5.03;;;;;;;24.33;63.84;157625.53;5012925;28;20448;-83
2022/08/05 05:16:16;;;;;;;8.63;5.90;;;;;;;24.38;64.32;157638.59;5014855;28;20519;-83
2022/08/05 05:18:43;;;;;;;10.80;5.87;;;;;;;24.59;63.85;157693.53;5036704;28;20536;-77
2022/08/05 05:21:10;;;;;;;7.97;5.80;;;;;;;24.94;62.83;157783.84;5016955;28;20447;-77
2022/08/05 05:23:38;;;;;;;7.33;5.70;;;;;;;25.26;62.06;157868.88;5051768;28;20466;-78
2022/08/05 05:26:05;;;;;;;7.17;5.23;;;;;;;25.63;61.17;157963.19;5033887;28;20424;-78
2022/08/05 05:28:32;;;;;;;7.13;5.50;;;;;;;25.85;59.70;158020.78;5049729;28;21086;-77
2022/08/05 05:31:01;;;;;;;8.80;6.07;;;;;;;26.05;59.14;158073.16;5008756;28;20576;-77
2022/08/05 05:33:27;;;;;;;7.33;5.80;;;;;;;26.28;58.24;158133.44;5019831;28;20471;-77
2022/08/05 05:35:54;;;;;;;6.70;5.40;;;;;;;26.52;57.78;158195.00;5011384;28;20445;-77
2022/08/05 05:38:21;;;;;;;7.03;6.13;;;;;;;26.70;57.46;158240.81;5029048;28;20537;-77
2022/08/05 05:40:49;;;;;;;6.50;5.70;;;;;;;26.95;56.96;158306.38;5013391;28;20777;-77
2022/08/05 05:43:15;;;;;;;7.03;5.83;;;;;;;26.99;56.42;158318.16;4995123;28;20546;-77
2022/08/05 05:45:42;;;;;;;12.03;7.20;;;;;;;27.08;56.21;158340.44;5032023;28;20444;-77
2022/08/05 05:48:09;;;;;;;6.70;6.17;;;;;;;27.12;56.23;158352.22;4993823;28;20437;-77
2022/08/05 05:50:38;;;;;;;7.30;6.70;;;;;;;27.35;56.16;158411.16;5030064;28;20444;-77
2022/08/05 05:53:05;;;;;;;7.03;6.40;;;;;;;27.50;55.01;158449.25;5030300;28;20440;-77
2022/08/05 05:55:32;;;;;;;8.13;7.40;;;;;;;27.66;55.69;158491.19;5012976;28;20928;-77
2022/08/05 05:58:00;;;;;;;7.20;6.60;;;;;;;27.77;55.25;158520.03;5005672;28;20546;-78
2022/08/05 06:00:26;;;;;;;12.53;7.90;;;;;;;27.69;54.40;158500.31;5025562;28;20989;-77
2022/08/05 06:02:53;;;;;;;8.47;7.57;;;;;;;27.80;54.34;158529.16;5027600;28;20534;-77
2022/08/05 06:05:20;;;;;;;7.80;7.00;;;;;;;27.99;54.19;158576.34;4993056;28;20441;-78
2022/08/05 06:07:48;;;;;;;7.83;7.10;;;;;;;27.95;54.25;158565.91;5003416;28;20432;-78
2022/08/05 06:10:15;;;;;;;9.03;8.13;;;;;;;28.21;53.82;158634.09;5010630;28;20794;-77
2022/08/05 06:12:42;;;;;;;7.07;6.47;;;;;;;28.52;52.58;158715.41;4994120;28;20471;-78
2022/08/05 06:15:11;;;;;;;7.03;6.17;;;;;;;28.42;51.89;158687.84;5014777;28;20456;-78
2022/08/05 06:17:37;;;;;;;6.80;6.23;;;;;;;28.21;52.90;158634.09;5014748;28;20441;-77
2022/08/05 06:20:05;;;;;;;7.70;6.07;;;;;;;28.57;51.85;158728.50;5015412;28;20517;-77
2022/08/05 06:22:34;;;;;;;8.30;5.80;;;;;;;28.58;51.11;158731.16;5030736;28;20538;-76
2022/08/05 06:25:01;;;;;;;6.80;6.30;;;;;;;28.20;51.96;158631.47;5011513;28;20472;-78
2022/08/05 06:27:28;;;;;;;6.60;6.10;;;;;;;28.46;51.75;158698.38;5021705;28;20862;-75
2022/08/05 06:29:54;;;;;;;7.00;6.43;;;;;;;28.39;51.86;158682.63;5029532;28;20458;-75
2022/08/05 06:32:23;;;;;;;6.90;5.53;;;;;;;28.71;51.22;158765.28;5014161;28;20510;-75
2022/08/05 06:34:49;;;;;;;8.10;5.80;;;;;;;29.06;50.18;158854.47;5030949;28;20456;-75
2022/08/05 06:37:16;;;;;;;5.73;5.27;;;;;;;29.22;49.73;158896.50;5007880;28;20445;-75
2022/08/05 06:39:43;;;;;;;7.40;6.37;;;;;;;29.30;48.96;158917.50;4993132;28;20483;-75
2022/08/05 06:42:10;;;;;;;6.23;5.63;;;;;;;29.06;49.43;158854.47;5011126;28;20529;-75
2022/08/05 06:44:36;;;;;;;14.33;5.43;;;;;;;29.16;49.22;158880.69;5001028;28;20451;-74
2022/08/05 06:47:03;;;;;;;6.20;5.60;;;;;;;29.53;48.24;158977.84;5008145;28;20868;-75
2022/08/05 06:49:31;;;;;;;6.33;5.77;;;;;;;29.44;48.27;158954.25;5029794;28;20439;-77
2022/08/05 06:51:58;;;;;;;6.17;5.53;;;;;;;29.28;48.55;158913.53;5031302;28;20482;-76
2022/08/05 06:54:25;;;;;;;6.43;4.83;;;;;;;29.66;48.79;159010.66;5027753;28;20483;-76
2022/08/05 06:56:51;;;;;;;7.00;5.57;;;;;;;30.04;46.41;159111.78;5030889;28;20482;-77
2022/08/05 06:59:18;;;;;;;6.43;5.67;;;;;;;30.17;47.55;159144.59;5012866;28;20502;-75
2022/08/05 07:01:45;;;;;;;6.03;5.03;;;;;;;30.38;46.93;159198.44;5013013;28;20460;-75
2022/08/05 07:04:12;;;;;;;6.07;5.37;;;;;;;30.36;45.31;159193.19;5031811;28;20459;-76
2022/08/05 07:06:40;;;;;;;5.10;4.60;;;;;;;30.58;45.30;159252.25;5033742;28;20462;-75
2022/08/05 07:09:07;;;;;;;5.13;4.63;;;;;;;30.89;44.35;159332.38;5017441;28;20443;-76
2022/08/05 07:11:34;;;;;;;5.80;5.03;;;;;;;30.99;45.25;159357.38;5010584;28;20459;-76
2022/08/05 07:16:50;;;;;;;7.80;4.87;;;;;;;30.50;44.52;159229.97;5030761;28;20454;-75
2022/08/05 07:19:18;;;;;;;4.80;4.50;;;;;;;30.34;45.03;159189.19;5013259;28;20558;-75
2022/08/05 07:21:47;;;;;;;5.27;4.87;;;;;;;30.45;44.54;159218.13;5032797;28;20471;-75
2022/08/05 07:24:13;;;;;;;4.73;4.33;;;;;;;30.25;45.23;159164.25;5031708;28;20483;-75
2022/08/05 07:26:41;;;;;;;5.17;4.73;;;;;;;30.52;45.03;159236.53;5015743;28;20450;-75
2022/08/05 07:29:08;;;;;;;5.83;4.90;;;;;;;30.70;44.60;159283.81;5003402;28;20448;-75
2022/08/05 07:31:35;;;;;;;6.00;5.37;;;;;;;30.58;44.47;159252.25;5004624;28;20458;-75
2022/08/05 07:34:02;;;;;;;5.30;4.80;;;;;;;30.68;44.25;159278.56;5013620;28;20550;-75
2022/08/05 07:36:29;;;;;;;4.30;4.00;;;;;;;31.08;43.29;159381.03;4999959;28;20823;-75
2022/08/05 07:38:57;;;;;;;5.67;4.07;;;;;;;31.35;42.63;159453.25;4997005;28;20477;-75
2022/08/05 07:41:24;;;;;;;7.60;4.20;;;;;;;31.44;42.17;159474.28;5016949;28;20509;-75
2022/08/05 07:43:52;;;;;;;4.73;4.27;;;;;;;31.24;42.52;159424.34;5014943;28;20622;-75
2022/08/05 07:46:19;;;;;;;5.17;4.60;;;;;;;31.33;42.31;159448.00;5006479;28;20451;-75
2022/08/05 07:48:46;;;;;;;5.13;4.63;;;;;;;31.42;41.10;159469.03;5031073;28;20459;-75
2022/08/05 07:51:14;;;;;;;5.30;4.80;;;;;;;31.52;41.22;159495.34;5016064;28;21006;-75
2022/08/05 07:53:41;;;;;;;4.97;4.57;;;;;;;31.73;42.16;159550.53;5029746;28;20454;-75
2022/08/05 07:56:09;;;;;;;5.00;4.60;;;;;;;31.61;40.99;159519.00;5031952;28;20766;-76
2022/08/05 07:58:36;;;;;;;5.10;4.70;;;;;;;31.69;41.89;159541.31;5014915;28;20451;-76
2022/08/05 08:01:03;;;;;;;4.93;4.43;;;;;;;31.66;40.96;159532.16;5033789;28;20486;-76
2022/08/05 08:03:30;;;;;;;7.67;4.60;;;;;;;31.80;40.85;159568.91;5031445;28;20509;-75
2022/08/05 08:05:56;;;;;;;4.77;4.27;;;;;;;31.79;40.99;159566.28;5032213;28;20807;-75
2022/08/05 08:08:23;;;;;;;4.30;4.00;;;;;;;31.22;41.57;159417.78;5033690;28;20478;-75
2022/08/05 08:10:55;;;;;;;6.23;4.47;;;;;;;30.77;41.62;159300.84;5020925;28;20437;-76
2022/08/05 08:13:23;;;;;;;4.60;4.20;;;;;;;30.48;42.89;159224.69;5007999;28;20510;-75
2022/08/05 08:15:50;;;;;;;4.63;4.20;;;;;;;30.69;42.04;159279.84;5030100;28;20447;-77
2022/08/05 08:18:17;;;;;;;4.70;4.30;;;;;;;30.84;41.78;159319.25;5015309;28;20563;-75
2022/08/05 08:20:43;;;;;;;4.40;3.97;;;;;;;31.13;41.40;159394.16;5012638;28;20464;-75
2022/08/05 08:23:10;;;;;;;6.33;3.80;;;;;;;31.46;39.61;159480.88;5031686;28;20519;-76
2022/08/05 08:25:37;;;;;;;3.80;3.37;;;;;;;31.75;39.03;159555.75;4992504;28;20475;-75
2022/08/05 08:28:04;;;;;;;3.47;3.13;;;;;;;31.34;39.79;159450.66;5000077;28;20444;-75
2022/08/05 08:30:32;;;;;;;5.97;3.03;;;;;;;31.33;38.78;159448.00;4978015;28;20476;-76
2022/08/05 08:32:59;;;;;;;3.40;3.10;;;;;;;31.00;39.97;159361.34;5011149;28;20543;-76
2022/08/05 08:35:26;;;;;;;3.10;2.90;;;;;;;31.36;39.06;159454.56;5013713;28;20452;-76
2022/08/05 08:37:53;;;;;;;3.40;3.10;;;;;;;31.39;38.44;159461.13;5014188;28;20468;-76
2022/08/05 08:40:19;;;;;;;3.63;3.33;;;;;;;31.67;38.28;159534.75;5001716;28;20510;-77
2022/08/05 08:42:48;;;;;;;4.50;3.07;;;;;;;31.08;38.90;159382.34;5014151;28;20432;-77
2022/08/05 08:45:15;;;;;;;3.80;3.40;;;;;;;31.11;39.86;159388.91;5027375;28;20465;-76
2022/08/05 08:47:46;;;;;;;3.37;3.07;;;;;;;31.49;38.93;159487.44;5032278;28;20914;-76
2022/08/05 08:50:13;;;;;;;3.20;3.00;;;;;;;31.58;38.39;159511.13;5032179;28;20441;-81
2022/08/05 08:52:41;;;;;;;3.50;3.20;;;;;;;31.61;38.39;159519.00;5030457;28;20931;-82
2022/08/05 08:55:08;;;;;;;2.80;2.60;;;;;;;31.75;38.64;159557.09;4995705;28;20445;-80
2022/08/05 08:57:35;;;;;;;3.37;3.17;;;;;;;32.02;37.32;159626.78;5012972;28;20490;-82
2022/08/05 09:00:04;;;;;;;3.13;2.93;;;;;;;32.02;37.87;159626.78;5019676;28;20476;-82
2022/08/05 09:02:30;;;;;;;3.70;3.40;;;;;;;32.21;37.98;159676.72;4998858;28;20437;-82
2022/08/05 09:04:59;;;;;;;3.30;3.00;;;;;;;32.66;37.05;159792.44;4995490;28;20451;-82
2022/08/05 09:07:25;;;;;;;4.47;3.17;;;;;;;31.87;37.13;159587.31;5029767;28;20454;-80
2022/08/05 09:09:52;;;;;;;3.63;3.30;;;;;;;31.91;37.50;159599.13;5028596;28;20831;-80
2022/08/05 09:12:19;;;;;;;3.70;3.40;;;;;;;31.68;38.27;159537.38;5031613;28;20451;-80
2022/08/05 09:14:45;;;;;;;3.30;3.10;;;;;;;31.71;38.08;159545.28;5024187;28;20462;-81
2022/08/05 09:17:13;;;;;;;3.57;3.13;;;;;;;31.54;37.54;159500.59;5014454;28;20539;-80
2022/08/05 09:19:40;;;;;;;3.43;3.13;;;;;;;31.56;37.45;159505.88;5030920;28;20495;-80
2022/08/05 09:22:08;;;;;;;2.90;2.70;;;;;;;31.49;37.14;159487.44;5031650;28;20451;-80
2022/08/05 09:24:35;;;;;;;5.27;2.90;;;;;;;31.22;37.66;159419.09;5026159;28;20476;-80
2022/08/05 09:27:02;;;;;;;2.50;2.30;;;;;;;31.38;37.07;159458.50;4997464;28;20931;-80
2022/08/05 09:29:41;;;;;;;2.60;2.40;;;;;;;31.75;37.85;159557.09;5011700;28;20667;-80
2022/08/05 09:32:09;;;;;;;3.00;2.80;;;;;;;32.26;37.40;159689.88;5014299;28;20863;-83
2022/08/05 09:34:47;;;;;;;3.10;2.80;;;;;;;32.26;36.64;159689.88;5010786;28;20436;-81
2022/08/05 09:37:19;;;;;;;3.00;2.80;;;;;;;32.23;36.57;159681.97;5011913;28;20440;-82
2022/08/05 09:39:46;;;;;;;3.47;3.07;;;;;;;31.40;37.47;159463.78;5031286;28;20562;-82
2022/08/05 09:42:15;;;;;;;3.97;3.10;;;;;;;31.35;38.20;159453.25;5030981;28;20534;-80
2022/08/05 09:44:44;;;;;;;3.20;2.70;;;;;;;31.39;37.44;159462.47;5012958;28;20542;-80
2022/08/05 09:47:14;;;;;;;3.17;2.87;;;;;;;31.53;37.31;159498.00;5013327;28;20428;-80
2022/08/05 09:49:42;;;;;;;3.40;3.10;;;;;;;32.53;35.65;159758.25;5005295;28;20869;-80
2022/08/05 09:52:24;;;;;;;3.83;3.30;;;;;;;32.82;35.84;159834.50;5019350;28;20479;-82
2022/08/05 09:54:53;;;;;;;3.40;2.90;;;;;;;32.89;35.44;159852.91;5030036;28;20504;-82
2022/08/05 09:57:35;;;;;;;3.60;2.60;;;;;;;32.94;35.90;159867.34;5022546;28;20903;-82
2022/08/05 10:00:08;;;;;;;3.50;3.20;;;;;;;33.09;35.43;159905.56;5011852;28;20499;-83
2022/08/05 10:02:38;;;;;;;3.40;3.10;;;;;;;33.26;35.30;159950.25;5028129;28;20456;-83
2022/08/05 10:05:14;;;;;;;3.40;3.10;;;;;;;33.93;33.84;160123.91;5031688;28;20925;-83
2022/08/05 10:07:47;;;;;;;3.10;2.90;;;;;;;33.47;34.13;160004.16;5029926;28;20442;-83
2022/08/05 10:10:15;;;;;;;3.03;2.83;;;;;;;32.71;35.30;159806.91;5001848;28;20443;-83
2022/08/05 10:12:43;;;;;;;2.93;2.43;;;;;;;32.51;35.74;159755.56;5027432;28;20766;-82
2022/08/05 10:15:21;;;;;;;4.50;2.70;;;;;;;32.44;34.91;159735.84;5025447;28;20557;-82
2022/08/05 10:18:18;;;;;;;3.00;2.80;;;;;;;32.33;35.65;159708.25;5027299;28;20482;-82
2022/08/05 10:20:46;;;;;;;3.10;2.80;;;;;;;32.57;35.65;159768.81;5026679;28;20482;-82
2022/08/05 10:23:17;;;;;;;3.53;2.80;;;;;;;32.61;35.16;159779.28;5030505;28;20443;-82
2022/08/05 10:25:43;;;;;;;3.80;2.87;;;;;;;32.61;35.40;159780.63;5026179;28;20467;-82
2022/08/05 10:28:10;;;;;;;3.00;2.70;;;;;;;32.60;35.27;159777.97;5010877;28;20826;-82
2022/08/05 10:30:39;;;;;;;3.73;3.10;;;;;;;32.21;36.01;159675.41;5013724;28;20838;-82
2022/08/05 10:33:07;;;;;;;3.53;2.60;;;;;;;32.45;35.64;159738.50;5030585;28;20452;-82
2022/08/05 10:35:34;;;;;;;3.20;2.90;;;;;;;32.38;34.67;159721.38;5029335;28;20526;-82
2022/08/05 10:38:02;;;;;;;3.13;2.93;;;;;;;32.55;34.57;159764.81;5011871;28;20431;-82
2022/08/05 10:40:33;;;;;;;2.70;2.50;;;;;;;32.40;33.97;159726.69;5029913;28;20474;-82
2022/08/05 10:43:08;;;;;;;3.27;2.70;;;;;;;31.75;35.61;159557.09;5000026;28;20472;-82
2022/08/05 10:45:35;;;;;;;3.30;3.00;;;;;;;31.64;35.49;159528.16;5044530;28;21089;-82
2022/08/05 10:48:29;;;;;;;3.37;3.07;;;;;;;31.75;35.74;159555.75;5013559;28;20454;-81
2022/08/05 10:51:01;;;;;;;3.87;2.70;;;;;;;31.30;36.16;159438.78;5013296;28;20988;-81
2022/08/05 10:53:40;;;;;;;3.70;2.53;;;;;;;31.46;36.71;159480.88;4987801;28;20511;-82
2022/08/05 10:56:10;;;;;;;3.17;2.87;;;;;;;31.85;35.73;159583.34;5010442;28;20454;-82
2022/08/05 10:58:48;;;;;;;3.17;2.97;;;;;;;32.01;36.81;159622.84;5030178;28;20442;-82
2022/08/05 11:01:15;;;;;;;3.73;3.43;;;;;;;32.08;36.83;159641.25;5013528;28;20508;-82
2022/08/05 11:04:00;;;;;;;3.30;3.00;;;;;;;31.99;37.66;159618.84;4993090;28;20452;-82
2022/08/05 11:06:27;;;;;;;3.33;3.03;;;;;;;32.03;37.69;159628.09;5026458;28;20456;-81
2022/08/05 11:09:27;;;;;;;3.47;3.17;;;;;;;31.96;37.65;159610.94;5010608;28;20448;-82
2022/08/05 11:11:56;;;;;;;3.13;2.93;;;;;;;31.85;37.30;159583.34;4945783;28;20537;-81
2022/08/05 11:14:28;;;;;;;4.00;3.20;;;;;;;31.89;37.63;159592.56;4937329;29;20447;-81
2022/08/05 11:17:31;;;;;;;3.40;3.10;;;;;;;32.12;36.67;159653.06;4982972;28;20441;-82
2022/08/05 11:19:58;;;;;;;3.63;2.90;;;;;;;32.20;36.45;159672.75;5012070;28;20645;-81
2022/08/05 11:22:43;;;;;;;3.83;3.53;;;;;;;32.29;35.96;159697.75;5012203;28;20450;-81
2022/08/05 11:25:30;;;;;;;3.40;3.10;;;;;;;31.79;35.99;159567.63;5025220;28;20495;-82
2022/08/05 11:28:36;;;;;;;4.07;3.20;;;;;;;31.83;36.93;159576.78;5030712;28;20479;-80
2022/08/05 11:31:26;;;;;;;3.50;3.20;;;;;;;32.09;36.32;159645.16;5013562;28;20458;-82
2022/08/05 11:33:55;;;;;;;4.33;3.23;;;;;;;32.26;36.56;159689.88;5011062;28;20459;-82
2022/08/05 11:36:39;;;;;;;2.60;2.40;;;;;;;32.44;36.12;159737.16;5029686;28;20834;-82